UKOH/KHE METAR and TAF weather

Enter ICAO airport designator
Station Type Date Time Source
UKOH METAR 2019/06/18 05:30 UTC NOAA

UKOH 180530Z 08004MPS 030V110 CAVOK 25/13 Q1015 R03/CLRD// NOSIG


Station Type Date Time Source
UKOH Decoded METAR 2019/06/18 05:30 UTC NOAA

Station name not available
Jun 18, 2019 - 01:30 AM EDT / 2019.06.18 0530 UTC
Wind: from the E (080 degrees) at 9 MPH (8 KT) (direction variable):0
Visibility: greater than 7 mile(s):0
Temperature: 77 F (25 C)
Dew Point: 55 F (13 C)
Relative Humidity: 47%
Pressure (altimeter): 29.97 in. Hg (1015 hPa)
ob: UKOH 180530Z 08004MPS 030V110 CAVOK 25/13 Q1015 R03/CLRD// NOSIG
cycle: 5

Station Type Date Time Source
UKOH TAF UTC NOAA

Error!

Example: see airport list